createdAt,value
2023-02-27T00:00:14.976Z,12.14
2023-02-27T00:01:12.086Z,12.16
2023-02-27T00:02:08.939Z,13.32
2023-02-27T00:03:06.227Z,13.20
2023-02-27T00:04:03.137Z,13.09
2023-02-27T00:05:00.801Z,12.07
2023-02-27T00:05:58.127Z,12.54
2023-02-27T00:06:54.917Z,12.93
2023-02-27T00:07:51.858Z,13.02
2023-02-27T00:08:48.753Z,13.09
2023-02-27T00:09:46.802Z,12.95
2023-02-27T00:10:43.752Z,13.32
2023-02-27T00:11:40.731Z,13.13
2023-02-27T00:12:39.086Z,13.37
2023-02-27T00:13:36.345Z,12.61
2023-02-27T00:14:33.251Z,13.58
2023-02-27T00:15:33.583Z,12.78
2023-02-27T00:16:30.722Z,11.20
2023-02-27T00:17:29.756Z,12.40
2023-02-27T00:18:26.548Z,12.50
2023-02-27T00:19:23.413Z,12.06
2023-02-27T00:20:20.347Z,13.50
2023-02-27T00:21:17.222Z,13.00
2023-02-27T00:22:14.070Z,12.50
2023-02-27T00:23:11.031Z,12.45
2023-02-27T00:24:08.231Z,12.14
2023-02-27T00:25:06.298Z,13.23
2023-02-27T00:26:04.067Z,13.17
2023-02-27T00:27:01.300Z,12.45
2023-02-27T00:27:58.370Z,12.62
2023-02-27T00:28:55.422Z,11.14
2023-02-27T00:29:52.184Z,13.27
2023-02-27T00:30:49.062Z,12.90
2023-02-27T00:31:45.936Z,13.20
2023-02-27T00:32:43.924Z,12.89
2023-02-27T00:33:40.759Z,12.61
2023-02-27T00:34:37.517Z,13.06
2023-02-27T00:35:34.439Z,12.39
2023-02-27T00:36:31.240Z,12.75
2023-02-27T00:37:27.993Z,13.26
2023-02-27T00:38:25.052Z,13.27
2023-02-27T00:39:22.087Z,12.27
2023-02-27T00:40:19.062Z,12.85
2023-02-27T00:41:15.863Z,12.77
2023-02-27T00:42:12.760Z,13.51
2023-02-27T00:43:09.670Z,12.73
2023-02-27T00:44:06.482Z,13.20
2023-02-27T00:45:05.239Z,12.24
2023-02-27T00:46:02.039Z,12.48
2023-02-27T00:46:58.920Z,13.54
2023-02-27T00:47:55.739Z,12.00
2023-02-27T00:48:52.564Z,13.52
2023-02-27T00:49:49.448Z,13.48
2023-02-27T00:50:46.238Z,13.12
2023-02-27T00:51:43.021Z,12.58
2023-02-27T00:52:39.964Z,13.22
2023-02-27T00:53:36.774Z,13.37
2023-02-27T00:54:33.628Z,12.43
2023-02-27T00:55:30.388Z,13.66
2023-02-27T00:56:27.174Z,13.24
2023-02-27T00:57:24.158Z,13.81
2023-02-27T00:58:20.918Z,12.10
2023-02-27T00:59:18.033Z,13.83
2023-02-27T01:00:15.139Z,13.79
2023-02-27T01:01:11.934Z,10.82
2023-02-27T01:02:08.804Z,13.63
2023-02-27T01:03:05.654Z,13.65
2023-02-27T01:04:02.544Z,13.79
2023-02-27T01:04:59.377Z,12.91
2023-02-27T01:05:56.146Z,13.99
2023-02-27T01:06:53.022Z,13.95
2023-02-27T01:07:50.458Z,12.52
2023-02-27T01:08:47.260Z,13.52
2023-02-27T01:09:44.809Z,13.98
2023-02-27T01:10:41.623Z,13.83
2023-02-27T01:11:38.449Z,13.43
2023-02-27T01:12:35.232Z,13.51
2023-02-27T01:13:32.448Z,13.93
2023-02-27T01:14:29.431Z,13.84
2023-02-27T01:15:26.340Z,13.54
2023-02-27T01:16:24.181Z,13.58
2023-02-27T01:17:21.116Z,13.73
2023-02-27T01:18:17.911Z,14.09
2023-02-27T01:19:14.649Z,13.05
2023-02-27T01:20:13.009Z,13.89
2023-02-27T01:21:09.926Z,13.73
2023-02-27T01:22:06.986Z,13.46
2023-02-27T01:23:03.948Z,11.80
2023-02-27T01:24:00.728Z,14.19
2023-02-27T01:24:57.667Z,14.11
2023-02-27T01:25:54.504Z,14.18
2023-02-27T01:26:52.746Z,14.10
2023-02-27T01:27:50.281Z,13.69
2023-02-27T01:28:47.359Z,13.94
2023-02-27T01:29:44.397Z,13.98
2023-02-27T01:30:41.775Z,13.95
2023-02-27T01:31:38.703Z,13.07
2023-02-27T01:32:35.559Z,14.14
2023-02-27T01:33:32.429Z,13.05
2023-02-27T01:34:29.276Z,13.14
2023-02-27T01:35:26.115Z,13.60
2023-02-27T01:36:22.998Z,14.32
2023-02-27T01:37:19.806Z,13.76
2023-02-27T01:38:16.627Z,14.24
2023-02-27T01:39:13.332Z,14.10
2023-02-27T01:40:12.242Z,13.26
2023-02-27T01:41:09.114Z,13.69
2023-02-27T01:42:27.176Z,13.74
2023-02-27T01:43:24.282Z,13.52
2023-02-27T01:44:21.319Z,13.60
2023-02-27T01:45:31.954Z,13.86
2023-02-27T01:46:31.124Z,11.85
2023-02-27T01:47:28.421Z,13.74
2023-02-27T01:48:33.548Z,13.82
2023-02-27T01:49:34.470Z,12.37
2023-02-27T01:50:32.173Z,13.60
2023-02-27T01:51:35.006Z,13.13
2023-02-27T01:52:37.500Z,13.17
2023-02-27T01:53:38.389Z,13.05
2023-02-27T01:54:40.497Z,13.75
2023-02-27T01:55:39.511Z,13.82
2023-02-27T01:56:36.795Z,12.30
2023-02-27T01:57:33.984Z,13.58
2023-02-27T01:58:31.710Z,13.59
2023-02-27T01:59:29.693Z,12.02
2023-02-27T02:00:26.676Z,13.60
2023-02-27T02:01:24.582Z,13.04
2023-02-27T02:02:31.969Z,13.59
2023-02-27T02:04:03.699Z,13.79
2023-02-27T02:05:01.434Z,12.76
2023-02-27T02:06:02.535Z,13.29
2023-02-27T02:07:08.908Z,13.29
2023-02-27T02:08:07.413Z,12.99
2023-02-27T02:09:07.312Z,13.10
2023-02-27T02:10:05.124Z,13.30
2023-02-27T02:11:03.755Z,12.31
2023-02-27T02:12:01.254Z,11.25
2023-02-27T02:12:59.114Z,12.09
2023-02-27T02:13:59.384Z,12.72
2023-02-27T02:14:56.286Z,13.01
2023-02-27T02:16:25.239Z,12.48
2023-02-27T02:17:35.536Z,12.07
2023-02-27T02:19:07.685Z,11.69
2023-02-27T02:20:13.470Z,11.03
2023-02-27T02:21:45.130Z,10.67
2023-02-27T02:23:00.866Z,10.52
2023-02-27T02:24:28.210Z,10.57
2023-02-27T02:26:02.607Z,10.74
2023-02-27T02:27:19.043Z,10.51
2023-02-27T02:28:40.071Z,10.41
2023-02-27T02:29:58.747Z,10.51
2023-02-27T02:30:55.585Z,10.75
2023-02-27T02:32:29.751Z,10.78
2023-02-27T02:33:44.383Z,10.71
2023-02-27T02:35:02.617Z,10.90
2023-02-27T02:36:17.618Z,9.08
2023-02-27T02:37:26.794Z,8.81
2023-02-27T02:38:32.896Z,10.99
2023-02-27T02:39:44.848Z,11.13
2023-02-27T02:41:11.803Z,10.00
2023-02-27T02:42:24.060Z,9.16
2023-02-27T02:43:38.548Z,9.59
2023-02-27T02:45:03.005Z,8.13
2023-02-27T02:46:35.817Z,9.00
2023-02-27T02:47:45.139Z,8.71
2023-02-27T02:49:00.576Z,8.08
2023-02-27T02:50:06.422Z,8.60
2023-02-27T02:51:34.799Z,8.33
2023-02-27T02:52:59.036Z,8.81
2023-02-27T02:54:09.835Z,8.30
2023-02-27T02:55:15.027Z,8.04
2023-02-27T02:56:29.713Z,8.12
2023-02-27T02:57:43.736Z,8.23
2023-02-27T02:59:00.713Z,7.17
2023-02-27T03:00:11.898Z,7.97
2023-02-27T03:01:11.454Z,7.95
2023-02-27T03:02:17.072Z,8.00
2023-02-27T03:03:49.172Z,7.06
2023-02-27T03:04:50.963Z,7.53
2023-02-27T03:06:00.587Z,6.49
2023-02-27T03:07:14.982Z,7.26
2023-02-27T03:08:27.064Z,6.06
2023-02-27T03:09:45.163Z,5.74
2023-02-27T03:10:54.522Z,7.21
2023-02-27T03:11:56.549Z,5.76
2023-02-27T03:13:02.032Z,5.72
2023-02-27T03:14:25.857Z,7.19
2023-02-27T03:15:30.174Z,6.99
2023-02-27T03:16:53.450Z,7.37
2023-02-27T03:17:57.860Z,7.24
2023-02-27T03:19:04.322Z,7.48
2023-02-27T03:20:08.260Z,6.48
2023-02-27T03:21:16.347Z,7.22
2023-02-27T03:22:24.332Z,7.18
2023-02-27T03:23:31.735Z,6.00
2023-02-27T03:24:36.957Z,7.33
2023-02-27T03:25:36.743Z,6.87
2023-02-27T03:26:39.908Z,7.05
2023-02-27T03:27:51.734Z,5.86
2023-02-27T03:29:02.309Z,6.84
2023-02-27T03:30:12.228Z,7.53
2023-02-27T03:31:22.672Z,7.42
2023-02-27T03:32:22.532Z,7.24
2023-02-27T03:33:25.692Z,7.26
2023-02-27T03:34:29.522Z,7.01
2023-02-27T03:35:42.572Z,7.11
2023-02-27T03:37:18.180Z,7.14
2023-02-27T03:38:36.105Z,7.25
2023-02-27T03:40:24.385Z,6.91
2023-02-27T03:41:47.708Z,6.48
2023-02-27T03:43:16.752Z,6.68
2023-02-27T03:44:22.213Z,6.98
2023-02-27T03:45:34.693Z,6.88
2023-02-27T03:46:32.006Z,7.03
2023-02-27T03:47:30.302Z,6.48
2023-02-27T03:48:28.061Z,5.66
2023-02-27T03:49:25.096Z,6.24
2023-02-27T03:50:22.410Z,6.85
2023-02-27T03:51:22.544Z,6.96
2023-02-27T03:52:23.253Z,7.02
2023-02-27T03:53:37.529Z,6.49
2023-02-27T03:54:42.445Z,6.67
2023-02-27T03:55:43.981Z,4.96
2023-02-27T03:56:51.771Z,7.16
2023-02-27T03:57:51.111Z,6.97
2023-02-27T03:58:50.744Z,6.80
2023-02-27T03:59:47.795Z,6.78
2023-02-27T04:00:44.921Z,6.41
2023-02-27T04:02:02.730Z,6.47
2023-02-27T04:03:01.391Z,7.19
2023-02-27T04:04:08.392Z,6.84
2023-02-27T04:05:08.281Z,5.53
2023-02-27T04:06:25.612Z,5.78
2023-02-27T04:08:08.984Z,6.65
2023-02-27T04:09:23.174Z,6.55
2023-02-27T04:10:20.260Z,6.57
2023-02-27T04:11:40.850Z,5.63
2023-02-27T04:12:40.492Z,6.73
2023-02-27T04:13:55.121Z,6.22
2023-02-27T04:14:51.795Z,6.88
2023-02-27T04:16:00.887Z,7.00
2023-02-27T04:17:12.869Z,7.03
2023-02-27T04:18:28.252Z,6.99
2023-02-27T04:19:43.097Z,7.07
2023-02-27T04:20:54.316Z,6.97
2023-02-27T04:22:20.907Z,7.47
2023-02-27T04:23:54.813Z,6.97
2023-02-27T04:25:20.613Z,7.57
2023-02-27T04:26:36.015Z,7.52
2023-02-27T04:27:35.695Z,7.26
2023-02-27T04:28:51.350Z,7.16
2023-02-27T04:30:06.409Z,7.31
2023-02-27T04:31:06.063Z,6.32
2023-02-27T04:32:21.806Z,7.51
2023-02-27T04:33:43.606Z,7.20
2023-02-27T04:35:00.270Z,7.31
2023-02-27T04:36:10.822Z,7.20
2023-02-27T04:37:28.115Z,7.15
2023-02-27T04:38:35.794Z,7.31
2023-02-27T04:40:11.449Z,7.03
2023-02-27T04:41:37.843Z,7.40
2023-02-27T04:42:47.802Z,6.46
2023-02-27T04:43:47.711Z,6.75
2023-02-27T04:44:48.187Z,7.67
2023-02-27T04:45:48.588Z,7.55
2023-02-27T04:46:49.225Z,7.10
2023-02-27T04:48:07.017Z,7.72
2023-02-27T04:49:20.839Z,4.83
2023-02-27T04:50:28.745Z,7.78
2023-02-27T04:51:52.438Z,7.72
2023-02-27T04:53:00.063Z,7.91
2023-02-27T04:54:04.617Z,7.98
2023-02-27T04:55:20.506Z,7.70
2023-02-27T04:56:32.072Z,7.48
2023-02-27T04:57:46.942Z,6.91
2023-02-27T04:58:53.124Z,6.76
2023-02-27T04:59:55.223Z,6.75
2023-02-27T05:01:01.686Z,7.75
2023-02-27T05:02:11.974Z,7.48
2023-02-27T05:03:18.814Z,7.34
2023-02-27T05:04:21.659Z,7.53
2023-02-27T05:05:29.462Z,7.59
2023-02-27T05:06:35.109Z,7.74
2023-02-27T05:07:59.408Z,7.54
2023-02-27T05:09:09.144Z,6.71
2023-02-27T05:10:15.671Z,7.26
2023-02-27T05:11:18.348Z,7.66
2023-02-27T05:12:25.625Z,7.40
2023-02-27T05:13:30.337Z,6.60
2023-02-27T05:14:42.559Z,6.09
2023-02-27T05:15:58.059Z,6.30
2023-02-27T05:17:02.400Z,7.33
2023-02-27T05:18:07.012Z,7.17
2023-02-27T05:19:06.241Z,7.77
2023-02-27T05:20:07.290Z,7.83
2023-02-27T05:21:22.453Z,7.74
2023-02-27T05:22:25.245Z,7.92
2023-02-27T05:23:49.630Z,7.27
2023-02-27T05:25:09.113Z,6.47
2023-02-27T05:26:18.543Z,6.91
2023-02-27T05:27:41.338Z,6.33
2023-02-27T05:28:45.028Z,7.24
2023-02-27T05:29:53.246Z,6.44
2023-02-27T05:30:56.336Z,7.26
2023-02-27T05:32:24.078Z,6.99
2023-02-27T05:33:40.502Z,7.16
2023-02-27T05:34:45.545Z,7.02
2023-02-27T05:36:11.322Z,6.83
2023-02-27T05:37:16.754Z,6.21
2023-02-27T05:38:32.033Z,3.69
2023-02-27T05:39:36.353Z,5.55
2023-02-27T05:40:39.840Z,6.59
2023-02-27T05:41:51.700Z,7.08
2023-02-27T05:43:00.830Z,5.43
2023-02-27T05:44:23.425Z,7.15
2023-02-27T05:45:29.641Z,6.42
2023-02-27T05:46:34.157Z,6.51
2023-02-27T05:47:37.750Z,6.61
2023-02-27T05:49:04.125Z,6.01
2023-02-27T05:50:12.945Z,6.17
2023-02-27T05:51:14.792Z,6.88
2023-02-27T05:52:16.918Z,5.29
2023-02-27T05:53:19.102Z,7.07
2023-02-27T05:54:26.478Z,6.62
2023-02-27T05:55:44.615Z,6.58
2023-02-27T05:56:47.838Z,6.69
2023-02-27T05:57:59.500Z,6.74
2023-02-27T05:59:06.492Z,5.52
2023-02-27T06:00:10.929Z,6.71
2023-02-27T06:01:10.137Z,7.01
2023-02-27T06:02:07.264Z,6.91
2023-02-27T06:03:04.588Z,6.56
2023-02-27T06:04:01.980Z,6.97
2023-02-27T06:05:00.111Z,6.75
2023-02-27T06:06:04.465Z,6.95
2023-02-27T06:07:01.749Z,6.73
2023-02-27T06:07:58.694Z,6.80
2023-02-27T06:08:55.555Z,6.94
2023-02-27T06:09:52.514Z,6.16
2023-02-27T06:10:52.287Z,6.71
2023-02-27T06:11:52.229Z,7.00
2023-02-27T06:12:49.102Z,6.89
2023-02-27T06:13:45.955Z,6.07
2023-02-27T06:14:42.701Z,6.89
2023-02-27T06:15:39.496Z,6.74
2023-02-27T06:16:39.204Z,6.43
2023-02-27T06:17:36.037Z,6.79
2023-02-27T06:18:32.836Z,6.25
2023-02-27T06:19:29.991Z,6.58
2023-02-27T06:20:26.853Z,6.50
2023-02-27T06:21:23.705Z,6.49
2023-02-27T06:22:20.628Z,6.63
2023-02-27T06:23:17.632Z,6.11
2023-02-27T06:24:14.462Z,5.78
2023-02-27T06:25:11.593Z,6.39
2023-02-27T06:26:08.413Z,6.23
2023-02-27T06:27:07.868Z,6.32
2023-02-27T06:28:05.542Z,6.66
2023-02-27T06:29:02.604Z,5.45
2023-02-27T06:29:59.483Z,5.28
2023-02-27T06:30:57.455Z,5.60
2023-02-27T06:31:54.476Z,6.18
2023-02-27T06:32:51.436Z,2.93
2023-02-27T06:33:48.712Z,6.31
2023-02-27T06:34:45.943Z,6.62
2023-02-27T06:35:42.938Z,5.47
2023-02-27T06:36:40.002Z,6.66
2023-02-27T06:37:36.921Z,6.76
2023-02-27T06:38:34.059Z,5.63
2023-02-27T06:39:31.129Z,5.48
2023-02-27T06:40:31.237Z,4.51
2023-02-27T06:41:29.133Z,6.62
2023-02-27T06:42:25.916Z,6.69
2023-02-27T06:43:24.553Z,6.76
2023-02-27T06:44:21.413Z,6.78
2023-02-27T06:45:18.427Z,6.47
2023-02-27T06:46:15.330Z,6.61
2023-02-27T06:47:12.178Z,6.78
2023-02-27T06:48:10.038Z,6.83
2023-02-27T06:49:07.304Z,6.94
2023-02-27T06:50:05.499Z,7.10
2023-02-27T06:51:03.569Z,6.72
2023-02-27T06:52:00.537Z,4.93
2023-02-27T06:52:57.491Z,6.46
2023-02-27T06:53:54.315Z,4.76
2023-02-27T06:54:51.070Z,6.38
2023-02-27T06:55:47.886Z,6.13
2023-02-27T06:56:44.678Z,6.33
2023-02-27T06:57:41.415Z,6.86
2023-02-27T06:58:38.212Z,6.87
2023-02-27T06:59:35.039Z,6.43
2023-02-27T07:00:34.623Z,6.56
2023-02-27T07:01:31.797Z,6.89
2023-02-27T07:02:28.690Z,5.89
2023-02-27T07:03:25.688Z,4.79
2023-02-27T07:04:25.327Z,6.19
2023-02-27T07:05:22.162Z,4.86
2023-02-27T07:06:22.186Z,5.25
2023-02-27T07:07:39.683Z,7.37
2023-02-27T07:08:36.742Z,7.10
2023-02-27T07:09:33.963Z,7.33
2023-02-27T07:10:30.931Z,7.47
2023-02-27T07:11:27.672Z,7.45
2023-02-27T07:12:24.426Z,6.34
2023-02-27T07:13:21.174Z,4.45
2023-02-27T07:14:18.025Z,6.60
2023-02-27T07:15:14.816Z,7.01
2023-02-27T07:16:11.689Z,7.47
2023-02-27T07:17:08.508Z,7.21
2023-02-27T07:18:05.585Z,7.35
2023-02-27T07:19:02.278Z,6.94
2023-02-27T07:19:59.088Z,7.49
2023-02-27T07:20:55.951Z,6.14
2023-02-27T07:21:52.826Z,7.61
2023-02-27T07:22:49.607Z,7.44
2023-02-27T07:23:46.511Z,6.57
2023-02-27T07:24:43.362Z,7.37
2023-02-27T07:25:40.183Z,7.44
2023-02-27T07:26:39.220Z,4.53
2023-02-27T07:27:36.203Z,7.44
2023-02-27T07:28:33.073Z,7.06
2023-02-27T07:29:29.905Z,5.63
2023-02-27T07:30:26.774Z,7.66
2023-02-27T07:31:23.805Z,7.07
2023-02-27T07:32:20.906Z,6.37
2023-02-27T07:33:17.691Z,7.23
2023-02-27T07:34:15.670Z,6.96
2023-02-27T07:35:12.414Z,7.30
2023-02-27T07:36:09.418Z,6.81
2023-02-27T07:37:06.331Z,7.32
2023-02-27T07:38:04.004Z,7.41
2023-02-27T07:39:00.823Z,7.54
2023-02-27T07:39:57.667Z,6.09
2023-02-27T07:40:55.105Z,6.13
2023-02-27T07:41:51.900Z,6.34
2023-02-27T07:42:50.367Z,7.24
2023-02-27T07:43:48.366Z,7.34
2023-02-27T07:44:45.261Z,7.49
2023-02-27T07:45:42.709Z,7.72
2023-02-27T07:46:39.582Z,5.11
2023-02-27T07:47:39.851Z,7.87
2023-02-27T07:48:36.697Z,7.36
2023-02-27T07:49:33.464Z,7.65
2023-02-27T07:50:30.264Z,7.99
2023-02-27T07:51:29.982Z,7.03
2023-02-27T07:52:26.890Z,5.53
2023-02-27T07:53:25.038Z,7.39
2023-02-27T07:54:22.208Z,7.67
2023-02-27T07:55:19.501Z,6.93
2023-02-27T07:56:16.419Z,7.80
2023-02-27T07:57:13.453Z,6.85
2023-02-27T07:58:10.454Z,7.38
2023-02-27T07:59:07.456Z,6.55
2023-02-27T08:00:10.085Z,8.09
2023-02-27T08:01:07.064Z,7.06
2023-02-27T08:02:04.146Z,8.12
2023-02-27T08:03:01.049Z,6.35
2023-02-27T08:03:57.855Z,7.39
2023-02-27T08:04:54.792Z,5.93
2023-02-27T08:05:51.901Z,8.28
2023-02-27T08:06:49.003Z,6.57
2023-02-27T08:07:48.221Z,7.84
2023-02-27T08:08:47.546Z,8.01
2023-02-27T08:09:44.456Z,8.40
2023-02-27T08:10:41.260Z,8.33
2023-02-27T08:11:38.222Z,7.19
2023-02-27T08:12:35.130Z,7.64
2023-02-27T08:13:59.187Z,7.64
2023-02-27T08:14:48.801Z,8.02
2023-02-27T08:15:46.696Z,6.99
2023-02-27T08:16:43.551Z,8.19
2023-02-27T08:17:42.827Z,7.96
2023-02-27T08:18:39.740Z,8.04
2023-02-27T08:19:36.775Z,7.37
2023-02-27T08:20:33.683Z,7.60
2023-02-27T08:21:30.882Z,8.16
2023-02-27T08:22:27.893Z,7.82
2023-02-27T08:23:24.855Z,7.99
2023-02-27T08:24:21.911Z,8.18
2023-02-27T08:25:19.239Z,8.26
2023-02-27T08:26:16.185Z,7.38
2023-02-27T08:27:14.095Z,7.81
2023-02-27T08:28:31.591Z,8.33
2023-02-27T08:29:38.937Z,6.31
2023-02-27T08:30:58.694Z,6.61
2023-02-27T08:31:55.673Z,6.41
2023-02-27T08:32:54.949Z,7.24
2023-02-27T08:34:01.048Z,8.25
2023-02-27T08:35:07.486Z,8.35
2023-02-27T08:36:04.819Z,8.44
2023-02-27T08:37:01.615Z,8.67
2023-02-27T08:37:58.424Z,9.00
2023-02-27T08:38:55.364Z,8.75
2023-02-27T08:39:52.247Z,5.03
2023-02-27T08:40:53.387Z,8.54
2023-02-27T08:41:52.766Z,8.68
2023-02-27T08:42:51.766Z,8.06
2023-02-27T08:43:49.414Z,6.29
2023-02-27T08:44:46.316Z,8.83
2023-02-27T08:45:43.273Z,9.17
2023-02-27T08:46:40.140Z,8.82
2023-02-27T08:47:37.429Z,8.34
2023-02-27T08:48:34.149Z,8.81
2023-02-27T08:49:30.908Z,8.68
2023-02-27T08:50:27.704Z,8.97
2023-02-27T08:51:24.673Z,9.47
2023-02-27T08:52:24.044Z,9.09
2023-02-27T08:53:21.892Z,9.13
2023-02-27T08:54:19.651Z,8.63
2023-02-27T08:55:16.540Z,8.77
2023-02-27T08:56:13.400Z,9.03
2023-02-27T08:57:10.130Z,8.87
2023-02-27T08:58:06.906Z,9.53
2023-02-27T08:59:03.736Z,9.64
2023-02-27T09:00:00.537Z,9.50
2023-02-27T09:00:57.434Z,7.45
2023-02-27T09:01:54.228Z,9.08
2023-02-27T09:02:51.173Z,9.68
2023-02-27T09:03:48.041Z,9.46
2023-02-27T09:04:44.828Z,9.30
2023-02-27T09:05:42.562Z,8.09
2023-02-27T09:06:39.596Z,8.75
2023-02-27T09:07:36.435Z,9.22
2023-02-27T09:08:33.342Z,9.24
2023-02-27T09:09:30.204Z,9.03
2023-02-27T09:10:28.153Z,9.57
2023-02-27T09:11:27.132Z,9.69
2023-02-27T09:12:26.724Z,9.55
2023-02-27T09:13:23.826Z,9.32
2023-02-27T09:14:21.228Z,8.17
2023-02-27T09:15:18.273Z,9.39
2023-02-27T09:16:15.069Z,8.75
2023-02-27T09:17:12.132Z,9.43
2023-02-27T09:18:09.299Z,9.66
2023-02-27T09:19:07.048Z,8.74
2023-02-27T09:20:04.994Z,7.82
2023-02-27T09:21:01.839Z,9.47
2023-02-27T09:21:58.713Z,9.14
2023-02-27T09:22:55.483Z,8.74
2023-02-27T09:23:52.749Z,8.44
2023-02-27T09:24:49.471Z,9.49
2023-02-27T09:25:47.685Z,9.14
2023-02-27T09:26:46.401Z,9.61
2023-02-27T09:27:43.421Z,9.13
2023-02-27T09:28:40.273Z,9.14
2023-02-27T09:29:37.106Z,9.88
2023-02-27T09:30:34.387Z,10.26
2023-02-27T09:31:33.224Z,9.68
2023-02-27T09:32:30.609Z,10.07
2023-02-27T09:33:29.332Z,9.20
2023-02-27T09:34:26.322Z,9.60
2023-02-27T09:35:23.159Z,9.52
2023-02-27T09:36:19.943Z,9.42
2023-02-27T09:37:17.335Z,9.89
2023-02-27T09:38:14.108Z,9.55
2023-02-27T09:39:10.998Z,9.34
2023-02-27T09:40:11.966Z,8.99
2023-02-27T09:41:25.850Z,9.70
2023-02-27T09:42:28.450Z,9.28
2023-02-27T09:43:47.733Z,8.50
2023-02-27T09:44:48.549Z,9.59
2023-02-27T09:45:50.006Z,9.11
2023-02-27T09:46:47.347Z,9.32
2023-02-27T09:48:14.094Z,9.66
2023-02-27T09:49:18.844Z,9.86
2023-02-27T09:50:34.141Z,9.86
2023-02-27T09:51:31.263Z,8.73
2023-02-27T09:52:32.345Z,10.09
2023-02-27T09:53:37.396Z,10.17
2023-02-27T09:54:34.552Z,9.93
2023-02-27T09:55:35.872Z,10.45
2023-02-27T09:56:39.834Z,9.45
2023-02-27T09:57:51.554Z,10.29
2023-02-27T09:59:10.212Z,10.87
2023-02-27T10:00:20.020Z,10.16
2023-02-27T10:01:33.722Z,10.08
2023-02-27T10:03:23.039Z,10.41
2023-02-27T10:04:28.738Z,10.53
2023-02-27T10:05:43.142Z,10.98
2023-02-27T10:06:43.977Z,11.00
2023-02-27T10:08:02.769Z,10.75
2023-02-27T10:09:22.869Z,11.43
2023-02-27T10:10:42.278Z,11.00
2023-02-27T10:12:10.555Z,10.28
2023-02-27T10:13:30.749Z,11.00
2023-02-27T10:14:38.258Z,10.05
2023-02-27T10:15:43.061Z,11.34
2023-02-27T10:16:41.974Z,10.26
2023-02-27T10:17:44.674Z,11.22
2023-02-27T10:18:53.524Z,9.95
2023-02-27T10:19:54.716Z,11.02
2023-02-27T10:20:56.465Z,11.02
2023-02-27T10:21:56.646Z,10.70
2023-02-27T10:22:58.563Z,10.13
2023-02-27T10:24:07.560Z,10.66
2023-02-27T10:25:29.834Z,11.22
2023-02-27T10:26:33.287Z,11.36
2023-02-27T10:27:32.378Z,11.21
2023-02-27T10:28:29.871Z,11.38
2023-02-27T10:29:41.723Z,11.30
2023-02-27T10:30:39.050Z,11.82
2023-02-27T10:31:36.793Z,11.30
2023-02-27T10:32:38.596Z,11.33
2023-02-27T10:33:48.132Z,11.41
2023-02-27T10:34:53.024Z,10.36
2023-02-27T10:35:53.676Z,11.02
2023-02-27T10:36:51.434Z,11.41
2023-02-27T10:37:59.719Z,11.35
2023-02-27T10:39:03.756Z,10.39
2023-02-27T10:40:04.761Z,11.58
2023-02-27T10:41:03.955Z,11.27
2023-02-27T10:42:07.388Z,11.84
2023-02-27T10:43:06.506Z,11.36
2023-02-27T10:44:03.565Z,11.66
2023-02-27T10:45:00.381Z,10.95
2023-02-27T10:46:02.966Z,12.44
2023-02-27T10:46:59.845Z,12.17
2023-02-27T10:47:58.638Z,11.63
2023-02-27T10:48:55.575Z,10.15
2023-02-27T10:49:54.768Z,12.20
2023-02-27T10:50:52.347Z,11.50
2023-02-27T10:52:16.324Z,12.07
2023-02-27T10:53:27.083Z,11.96
2023-02-27T10:54:29.708Z,11.77
2023-02-27T10:55:31.011Z,11.66
2023-02-27T10:56:37.705Z,11.97
2023-02-27T10:57:43.494Z,12.11
2023-02-27T10:58:40.900Z,11.86
2023-02-27T10:59:42.976Z,12.05
2023-02-27T11:00:59.881Z,11.47
2023-02-27T11:02:00.497Z,12.01
2023-02-27T11:02:58.960Z,12.38
2023-02-27T11:03:59.079Z,11.84
2023-02-27T11:04:59.888Z,11.74
2023-02-27T11:06:17.181Z,11.51
2023-02-27T11:07:16.864Z,11.77
2023-02-27T11:08:29.093Z,11.84
2023-02-27T11:09:30.420Z,11.57
2023-02-27T11:10:28.906Z,11.91
2023-02-27T11:11:28.976Z,12.33
2023-02-27T11:12:33.225Z,12.63
2023-02-27T11:13:37.411Z,13.03
2023-02-27T11:14:34.645Z,13.43
2023-02-27T11:15:37.877Z,12.57
2023-02-27T11:16:49.560Z,12.54
2023-02-27T11:17:46.574Z,11.75
2023-02-27T11:18:46.525Z,11.67
2023-02-27T11:19:43.589Z,12.46
2023-02-27T11:20:43.608Z,12.13
2023-02-27T11:21:40.387Z,12.29
2023-02-27T11:22:37.189Z,12.31
2023-02-27T11:23:34.532Z,12.56
2023-02-27T11:24:31.933Z,11.98
2023-02-27T11:25:28.790Z,11.92
2023-02-27T11:26:36.410Z,12.90
2023-02-27T11:27:33.655Z,12.00
2023-02-27T11:28:30.907Z,12.39
2023-02-27T11:29:28.906Z,12.76
2023-02-27T11:30:32.087Z,12.86
2023-02-27T11:31:30.784Z,12.70
2023-02-27T11:32:44.526Z,12.80
2023-02-27T11:33:52.106Z,12.83
2023-02-27T11:34:51.662Z,12.16
2023-02-27T11:35:57.234Z,12.57
2023-02-27T11:37:02.756Z,12.57
2023-02-27T11:38:04.399Z,12.82
2023-02-27T11:39:01.557Z,13.37
2023-02-27T11:40:10.615Z,13.84
2023-02-27T11:41:09.723Z,13.69
2023-02-27T11:42:17.368Z,14.25
2023-02-27T11:43:21.856Z,13.87
2023-02-27T11:44:38.213Z,13.83
2023-02-27T11:46:11.048Z,13.19
2023-02-27T11:47:24.583Z,12.97
2023-02-27T11:48:30.376Z,13.54
2023-02-27T11:49:54.390Z,12.13
2023-02-27T11:51:09.316Z,13.45
2023-02-27T11:52:28.136Z,12.86
2023-02-27T11:53:48.007Z,13.16
2023-02-27T11:54:58.755Z,12.68
2023-02-27T11:56:04.099Z,13.15
2023-02-27T11:57:24.484Z,13.35
2023-02-27T11:58:28.273Z,12.32
2023-02-27T11:59:34.133Z,13.66
2023-02-27T12:00:39.787Z,13.37
2023-02-27T12:01:57.888Z,12.77
2023-02-27T12:03:12.681Z,13.85
2023-02-27T12:04:32.531Z,12.69
2023-02-27T12:05:44.382Z,13.29
2023-02-27T12:07:15.829Z,13.87
2023-02-27T12:08:36.985Z,14.20
2023-02-27T12:10:01.215Z,13.97
2023-02-27T12:11:20.762Z,13.95
2023-02-27T12:12:30.518Z,13.23
2023-02-27T12:13:35.009Z,12.75
2023-02-27T12:15:09.759Z,13.83
2023-02-27T12:16:32.277Z,12.81
2023-02-27T12:17:36.985Z,13.31
2023-02-27T12:18:48.248Z,12.87
2023-02-27T12:20:00.768Z,12.09
2023-02-27T12:21:13.405Z,10.22
2023-02-27T12:22:37.525Z,13.83
2023-02-27T12:23:43.971Z,13.82
2023-02-27T12:25:10.524Z,13.83
2023-02-27T12:26:22.411Z,13.67
2023-02-27T12:27:38.438Z,13.68
2023-02-27T12:28:56.640Z,11.98
2023-02-27T12:30:12.290Z,13.90
2023-02-27T12:31:35.302Z,13.78
2023-02-27T12:32:44.134Z,13.10
2023-02-27T12:33:59.186Z,13.31
2023-02-27T12:35:17.270Z,13.18
2023-02-27T12:36:15.326Z,11.83
2023-02-27T12:37:27.581Z,12.35
2023-02-27T12:38:24.697Z,12.89
2023-02-27T12:39:25.075Z,13.52
2023-02-27T12:40:31.688Z,13.51
2023-02-27T12:42:02.495Z,13.76
2023-02-27T12:43:15.951Z,13.70
2023-02-27T12:44:42.935Z,13.61
2023-02-27T12:45:39.738Z,13.40
2023-02-27T12:47:02.628Z,13.55
2023-02-27T12:48:13.636Z,13.49
2023-02-27T12:49:33.448Z,13.71
2023-02-27T12:51:08.265Z,13.66
2023-02-27T12:52:10.924Z,13.88
2023-02-27T12:53:47.991Z,13.34
2023-02-27T12:54:58.777Z,13.10
2023-02-27T12:56:12.135Z,12.14
2023-02-27T12:57:59.382Z,13.08
2023-02-27T12:59:12.112Z,13.16
2023-02-27T13:00:15.226Z,13.00
2023-02-27T13:01:23.049Z,12.90
2023-02-27T13:02:36.648Z,13.09
2023-02-27T13:03:54.684Z,13.13
2023-02-27T13:05:17.133Z,12.73
2023-02-27T13:06:29.147Z,12.48
2023-02-27T13:07:37.517Z,12.55
2023-02-27T13:09:04.149Z,11.77
2023-02-27T13:10:18.393Z,12.20
2023-02-27T13:11:24.993Z,11.79
2023-02-27T13:12:52.587Z,11.86
2023-02-27T13:13:54.259Z,8.69
2023-02-27T13:15:02.861Z,11.32
2023-02-27T13:16:13.375Z,9.86
2023-02-27T13:17:41.881Z,9.76
2023-02-27T13:18:59.300Z,10.62
2023-02-27T13:20:34.836Z,10.42
2023-02-27T13:21:46.435Z,10.76
2023-02-27T13:23:04.452Z,10.73
2023-02-27T13:24:30.661Z,10.95
2023-02-27T13:25:30.646Z,11.02
2023-02-27T13:26:35.901Z,11.12
2023-02-27T13:27:40.410Z,10.24
2023-02-27T13:28:43.573Z,10.89
2023-02-27T13:29:51.185Z,10.29
2023-02-27T13:31:14.291Z,10.95
2023-02-27T13:32:43.209Z,9.30
2023-02-27T13:33:56.641Z,10.01
2023-02-27T13:35:20.513Z,10.49
2023-02-27T13:36:33.118Z,10.09
2023-02-27T13:37:49.133Z,10.57
2023-02-27T13:38:56.862Z,10.49
2023-02-27T13:40:01.234Z,9.92
2023-02-27T13:40:58.272Z,10.05
2023-02-27T13:41:55.126Z,10.38
2023-02-27T13:42:55.848Z,9.87
2023-02-27T13:43:57.029Z,9.74
2023-02-27T13:44:54.485Z,9.58
2023-02-27T13:45:57.453Z,9.82
2023-02-27T13:46:54.359Z,9.41
2023-02-27T13:47:58.325Z,9.70
2023-02-27T13:49:20.069Z,9.92
2023-02-27T13:50:26.823Z,9.90
2023-02-27T13:51:35.689Z,10.14
2023-02-27T13:52:36.544Z,9.64
2023-02-27T13:53:33.399Z,9.49
2023-02-27T13:54:41.269Z,9.68
2023-02-27T13:55:40.061Z,9.78
2023-02-27T13:56:37.114Z,9.99
2023-02-27T13:57:37.212Z,9.00
2023-02-27T13:58:34.033Z,9.42
2023-02-27T13:59:43.491Z,9.64
2023-02-27T14:00:40.313Z,8.28
2023-02-27T14:01:38.698Z,8.86
2023-02-27T14:02:59.241Z,8.96
2023-02-27T14:04:07.954Z,9.14